Forsinard, United Kingdom
Current Conditions -  °F | °C
As of 7:20 PM on Thursday 18 Dec 2014 (Local Time) from EGPC Reporting Station
Rain Showers Rain Showers  
Wind Chill: 24°   Ceiling: Unl
Heat Index: 37°   Visibility: 6mi
Dew Point: 34°   Wind: 38mph
Humidity: 87%   Direction: 280°W
Pressure: 29.23"   Gusts: NA
Location:  58.45°N, 3.89°W
Report Text: EGPC 181920Z 28033KT 9999 -SHRA FEW013 SCT020 03/01 Q0990
Loading
Personal Weather Stations






























Interactive Weather Map New forecast layout! Learn more

10-Day Weather Forecast

Advertisements
Track Severe Weather on mobile